Aérodrome :
LOGIN :

S'inscrire | Disclaimer

   EN    FR    IT 

 










Légende :    VFR   VFR Marginal   IFR   IFR Intensif   IFR Très Intensif
Visi : 
Plafond : 
>= 8 km
>= 3000ft
5 à 8 km
1000 à 3000 ft
1500m à 5 km
500 à 1000 ft
800 à 1500m
200 à 500 ft
< 800m
< 200 ft
Symboles :   Orages  Brouillard  Fortes neiges  Fortes précipitations  Vent > 20 kt
SIGMETs :   Divers  Orages  Givrage  Turbulence  Onde Orograph.  Cendres Volcan.







- Altitude de l'aérodrome : 26 ft
- Code IATA : GLA
- Voir les cartes d'approche


EGPF - Glasgow

DERNIER METAR :
  • 210720Z AUTO 07015KT 9999 SCT031/// //////TCU 06/04 Q1011

METARs EXPIRÉS :
  • 210650Z AUTO 06013KT 9999 -RA FEW021/// SCT042/// //////TCU 06/04 Q1011
  • 210620Z AUTO 06016KT 9999 -RA BKN019/// BKN025/// BKN037/// //////CB 06/04 Q1011
  • 210550Z AUTO 06017KT 9999 -RA BKN016/// BKN024/// //////CB 06/05 Q1011
  • 210520Z AUTO 05016KT 9999 -RA SCT018/// BKN025/// //////CB 06/04 Q1011
  • 210450Z AUTO 05015KT 9999 -RA SCT019/// BKN028/// //////CB 06/04 Q1011
  • 210420Z AUTO 06016KT 9999 -RA BKN018/// BKN023/// //////CB 06/04 Q1012

TAF TAF EGPF
Valide du 21 à 06h jusqu'au 22 à 06h UTC


210504Z 2106/2206 06012KT 9999 SCT020
PROB40
TEMPO 2106/2114 07020G30KT 7000 SHRA BKN014
BECMG 2121/2124 VRB04KT
PROB30 2121/2206 6000
ATIS : +44 141 887 7449
Pas de NOTAMs connus pour ce terrain.
1 SIGMET publié pour la FIR Scottish (EGPX) :
 
Onde orographique forte
EGPX SIGMET 02 VALID 210500/210900 EGRR
EGPX SCOTTISH FIR SEV MTW FCST WI N5613 W00647 - N5729 W00634 - N5839 W00522 - N5841 W00342 - N5719 W00437 - N5617 W00423 - N5613 W00647 FL030/160 STNR WKN=



MET'MAP, la Météo Aéronautique d'un coup d'oeil ! - Copyright ORBIFLY Décembre 2007 - Disclaimer

ORBIFLY MET'MAP TEAM :

Programmation & Développement : Alexandra Zaïnal
Conception & Développement : Baudouin d'Aumeries
Co-Programmation & Développement : Marc-Olivier Méhu
Soutien technique & logistique : Manuel Goepfert

Contact : metmap@orbifly.com




SOURCES & CREDITS :

   NOAA